createdAt,value
2023-03-22T00:02:08.279Z,6.60
2023-03-22T00:04:35.082Z,7.30
2023-03-22T00:07:01.817Z,7.72
2023-03-22T00:09:28.631Z,7.13
2023-03-22T00:11:55.336Z,6.63
2023-03-22T00:14:22.070Z,10.25
2023-03-22T00:16:49.320Z,6.15
2023-03-22T00:19:17.407Z,9.68
2023-03-22T00:21:44.604Z,12.70
2023-03-22T00:24:11.412Z,8.40
2023-03-22T00:26:38.131Z,5.75
2023-03-22T00:29:05.964Z,8.68
2023-03-22T00:31:34.149Z,7.95
2023-03-22T00:34:00.859Z,8.20
2023-03-22T00:36:27.588Z,6.82
2023-03-22T00:38:54.235Z,7.88
2023-03-22T00:41:22.730Z,5.55
2023-03-22T00:43:50.642Z,6.75
2023-03-22T00:46:20.754Z,9.98
2023-03-22T00:48:48.483Z,11.73
2023-03-22T00:51:15.444Z,8.32
2023-03-22T00:53:43.743Z,9.18
2023-03-22T00:56:14.060Z,6.95
2023-03-22T00:58:45.551Z,5.75
2023-03-22T01:01:15.802Z,6.03
2023-03-22T01:03:43.798Z,8.65
2023-03-22T01:06:13.971Z,7.82
2023-03-22T01:08:40.665Z,7.35
2023-03-22T01:11:09.539Z,9.68
2023-03-22T01:13:41.748Z,5.90
2023-03-22T01:16:09.744Z,8.38
2023-03-22T01:18:37.006Z,8.82
2023-03-22T01:21:03.867Z,8.00
2023-03-22T01:23:31.851Z,8.55
2023-03-22T01:25:58.854Z,6.88
2023-03-22T01:28:27.170Z,6.93
2023-03-22T01:30:55.270Z,10.50
2023-03-22T01:33:22.520Z,7.75
2023-03-22T01:35:51.555Z,7.10
2023-03-22T01:38:19.056Z,10.07
2023-03-22T01:40:58.678Z,10.05
2023-03-22T01:43:27.037Z,7.78
2023-03-22T01:45:55.052Z,7.07
2023-03-22T01:48:34.113Z,11.13
2023-03-22T01:51:16.119Z,8.57
2023-03-22T01:54:00.972Z,12.93
2023-03-22T01:56:33.367Z,12.35
2023-03-22T01:59:01.500Z,7.80
2023-03-22T02:01:38.557Z,9.95
2023-03-22T02:04:12.963Z,7.18
2023-03-22T02:06:40.073Z,8.20
2023-03-22T02:09:14.163Z,8.13
2023-03-22T02:11:43.922Z,8.43
2023-03-22T02:14:49.310Z,10.00
2023-03-22T02:17:51.106Z,8.18
2023-03-22T02:21:07.844Z,7.97
2023-03-22T02:23:55.647Z,9.57
2023-03-22T02:26:33.588Z,6.15
2023-03-22T02:29:19.142Z,9.02
2023-03-22T02:32:10.739Z,7.50
2023-03-22T02:34:56.065Z,9.65
2023-03-22T02:37:42.859Z,8.43
2023-03-22T02:40:30.244Z,10.40
2023-03-22T02:43:20.560Z,9.27
2023-03-22T02:45:55.226Z,6.03
2023-03-22T02:48:42.174Z,9.57
2023-03-22T02:51:21.284Z,10.60
2023-03-22T02:54:22.569Z,12.18
2023-03-22T02:57:37.537Z,7.63
2023-03-22T03:00:10.760Z,10.07
2023-03-22T03:02:43.261Z,11.45
2023-03-22T03:05:11.736Z,10.43
2023-03-22T03:07:39.358Z,11.63
2023-03-22T03:10:07.445Z,9.32
2023-03-22T03:12:34.166Z,6.82
2023-03-22T03:15:00.983Z,8.05
2023-03-22T03:17:27.708Z,8.52
2023-03-22T03:20:09.517Z,9.60
2023-03-22T03:23:13.637Z,7.05
2023-03-22T03:26:09.353Z,7.20
2023-03-22T03:28:44.780Z,7.15
2023-03-22T03:31:27.049Z,7.78
2023-03-22T03:34:29.069Z,9.63
2023-03-22T03:37:18.556Z,8.25
2023-03-22T03:39:52.723Z,7.13
2023-03-22T03:42:23.709Z,10.65
2023-03-22T03:44:50.947Z,7.88
2023-03-22T03:47:18.568Z,7.82
2023-03-22T03:49:46.165Z,8.48
2023-03-22T03:52:13.350Z,11.23
2023-03-22T03:54:40.932Z,9.05
2023-03-22T03:57:12.044Z,8.80
2023-03-22T03:59:38.697Z,8.55
2023-03-22T04:02:13.416Z,6.70
2023-03-22T04:04:40.116Z,7.40
2023-03-22T04:07:07.124Z,17.17
2023-03-22T04:09:38.131Z,10.20
2023-03-22T04:12:15.219Z,8.13
2023-03-22T04:14:46.218Z,9.98
2023-03-22T04:17:21.199Z,11.55
2023-03-22T04:19:48.157Z,10.38
2023-03-22T04:22:18.425Z,9.38
2023-03-22T04:24:50.118Z,6.97
2023-03-22T04:27:21.028Z,9.20
2023-03-22T04:29:57.906Z,8.48
2023-03-22T04:32:46.002Z,8.30
2023-03-22T04:35:13.363Z,9.70
2023-03-22T04:37:41.633Z,12.52
2023-03-22T04:40:15.987Z,10.52
2023-03-22T04:42:57.417Z,10.65
2023-03-22T04:45:35.064Z,8.23
2023-03-22T04:48:04.690Z,8.98
2023-03-22T04:50:32.595Z,7.93
2023-03-22T04:53:03.271Z,8.15
2023-03-22T04:55:31.642Z,9.82
2023-03-22T04:57:58.388Z,10.20
2023-03-22T05:00:25.064Z,9.13
2023-03-22T05:02:53.328Z,9.50
2023-03-22T05:05:28.410Z,9.00
2023-03-22T05:07:56.228Z,11.98
2023-03-22T05:10:25.881Z,12.00
2023-03-22T05:12:53.785Z,8.52
2023-03-22T05:15:23.707Z,8.50
2023-03-22T05:17:51.892Z,8.07
2023-03-22T05:20:19.558Z,7.78
2023-03-22T05:22:57.115Z,9.73
2023-03-22T05:25:26.389Z,9.80
2023-03-22T05:27:54.138Z,8.95
2023-03-22T05:30:37.995Z,8.65
2023-03-22T05:33:22.024Z,10.13
2023-03-22T05:35:52.081Z,8.93
2023-03-22T05:38:19.091Z,9.00
2023-03-22T05:40:50.219Z,9.18
2023-03-22T05:43:17.089Z,10.02
2023-03-22T05:45:47.957Z,9.32
2023-03-22T05:48:37.888Z,9.57
2023-03-22T05:51:17.422Z,8.25
2023-03-22T05:53:49.183Z,8.93
2023-03-22T05:56:24.105Z,7.63
2023-03-22T05:58:53.108Z,10.25
2023-03-22T06:01:23.006Z,8.98
2023-03-22T06:04:10.049Z,7.40
2023-03-22T06:06:48.753Z,10.05
2023-03-22T06:09:31.037Z,7.80
2023-03-22T06:11:58.572Z,9.65
2023-03-22T06:14:25.458Z,8.40
2023-03-22T06:17:09.205Z,8.73
2023-03-22T06:19:35.982Z,8.63
2023-03-22T06:22:04.837Z,10.63
2023-03-22T06:24:34.085Z,8.25
2023-03-22T06:27:01.681Z,6.70
2023-03-22T06:29:28.647Z,10.25
2023-03-22T06:31:57.958Z,11.07
2023-03-22T06:34:26.172Z,8.02
2023-03-22T06:36:56.020Z,8.20
2023-03-22T06:39:32.625Z,5.75
2023-03-22T06:41:59.483Z,6.57
2023-03-22T06:44:27.087Z,9.15
2023-03-22T06:47:05.445Z,7.10
2023-03-22T06:49:52.530Z,7.22
2023-03-22T06:52:24.132Z,7.50
2023-03-22T06:54:51.723Z,8.77
2023-03-22T06:57:19.505Z,4.82
2023-03-22T06:59:46.246Z,5.07
2023-03-22T07:02:13.468Z,8.63
2023-03-22T07:04:46.115Z,7.18
2023-03-22T07:07:12.974Z,4.78
2023-03-22T07:09:40.606Z,3.38
2023-03-22T07:12:07.538Z,6.70
2023-03-22T07:14:34.434Z,8.30
2023-03-22T07:17:12.515Z,6.07
2023-03-22T07:19:39.448Z,7.82
2023-03-22T07:22:08.945Z,4.30
2023-03-22T07:24:40.323Z,9.98
2023-03-22T07:27:11.460Z,10.07
2023-03-22T07:29:38.401Z,4.60
2023-03-22T07:32:06.113Z,6.07
2023-03-22T07:34:50.719Z,5.75
2023-03-22T07:37:18.810Z,4.53
2023-03-22T07:39:45.765Z,5.50
2023-03-22T07:42:12.712Z,6.20
2023-03-22T07:44:42.848Z,4.75
2023-03-22T07:47:27.185Z,3.78
2023-03-22T07:50:25.966Z,4.88
2023-03-22T07:52:56.044Z,6.43
2023-03-22T07:55:22.913Z,4.07
2023-03-22T07:57:49.750Z,5.40
2023-03-22T08:00:17.157Z,5.40
2023-03-22T08:02:49.929Z,6.60
2023-03-22T08:05:46.215Z,4.68
2023-03-22T08:08:14.857Z,8.10
2023-03-22T08:10:41.905Z,3.80
2023-03-22T08:13:09.066Z,5.28
2023-03-22T08:15:37.382Z,5.95
2023-03-22T08:18:04.624Z,6.47
2023-03-22T08:20:35.542Z,7.88
2023-03-22T08:23:11.239Z,5.82
2023-03-22T08:26:01.021Z,4.13
2023-03-22T08:28:28.556Z,5.35
2023-03-22T08:30:55.262Z,3.95
2023-03-22T08:33:23.691Z,7.15
2023-03-22T08:35:51.003Z,4.70
2023-03-22T08:38:19.521Z,6.30
2023-03-22T08:40:49.863Z,4.05
2023-03-22T08:43:21.058Z,5.72
2023-03-22T08:45:47.945Z,4.60
2023-03-22T08:48:16.777Z,4.70
2023-03-22T08:50:58.878Z,5.72
2023-03-22T08:53:35.884Z,8.10
2023-03-22T08:56:24.721Z,5.93
2023-03-22T08:59:02.075Z,5.57
2023-03-22T09:01:47.702Z,2.90
2023-03-22T09:04:14.534Z,4.88
2023-03-22T09:06:44.106Z,4.18
2023-03-22T09:09:11.826Z,6.18
2023-03-22T09:11:41.157Z,2.88
2023-03-22T09:14:08.920Z,4.05
2023-03-22T09:16:36.056Z,4.38
2023-03-22T09:19:03.204Z,2.15
2023-03-22T09:21:30.984Z,4.43
2023-03-22T09:24:08.577Z,1.75
2023-03-22T09:26:55.257Z,1.67
2023-03-22T09:29:22.892Z,2.75
2023-03-22T09:31:49.589Z,3.53
2023-03-22T09:34:20.448Z,4.00
2023-03-22T09:36:47.541Z,1.50
2023-03-22T09:39:17.134Z,4.18
2023-03-22T09:41:58.737Z,4.00
2023-03-22T09:44:34.679Z,2.13
2023-03-22T09:47:05.490Z,2.90
2023-03-22T09:49:52.497Z,5.88
2023-03-22T09:52:20.019Z,4.03
2023-03-22T09:54:47.276Z,4.30
2023-03-22T09:57:26.134Z,4.80
2023-03-22T10:00:01.010Z,3.45
2023-03-22T10:02:45.737Z,3.10
2023-03-22T10:05:12.361Z,3.67
2023-03-22T10:08:03.246Z,1.60
2023-03-22T10:10:30.495Z,3.53
2023-03-22T10:13:23.800Z,8.63
2023-03-22T10:15:54.006Z,3.40
2023-03-22T10:18:36.162Z,3.25
2023-03-22T10:21:11.219Z,4.55
2023-03-22T10:23:47.018Z,2.80
2023-03-22T10:26:34.757Z,3.97
2023-03-22T10:29:04.595Z,2.55
2023-03-22T10:31:33.542Z,5.13
2023-03-22T10:34:29.221Z,3.08
2023-03-22T10:37:00.729Z,3.42
2023-03-22T10:39:32.496Z,4.20
2023-03-22T10:42:07.251Z,5.60
2023-03-22T10:44:45.168Z,3.60
2023-03-22T10:47:12.344Z,2.75
2023-03-22T10:49:45.297Z,5.97
2023-03-22T10:52:23.819Z,4.63
2023-03-22T10:54:50.896Z,2.53
2023-03-22T10:57:17.582Z,15.70
2023-03-22T10:59:50.958Z,3.85
2023-03-22T11:02:23.855Z,2.85
2023-03-22T11:04:53.776Z,7.88
2023-03-22T11:07:31.413Z,5.22
2023-03-22T11:09:59.922Z,3.67
2023-03-22T11:12:26.993Z,4.60
2023-03-22T11:14:53.669Z,3.17
2023-03-22T11:17:25.340Z,8.57
2023-03-22T11:20:01.707Z,5.15
2023-03-22T11:22:41.090Z,4.07
2023-03-22T11:25:21.189Z,4.18
2023-03-22T11:28:06.503Z,5.63
2023-03-22T11:30:34.684Z,3.67
2023-03-22T11:33:21.510Z,6.25
2023-03-22T11:35:55.232Z,4.53
2023-03-22T11:38:30.840Z,2.65
2023-03-22T11:41:01.980Z,3.42
2023-03-22T11:43:43.807Z,4.35
2023-03-22T11:46:12.262Z,7.35
2023-03-22T11:48:42.062Z,3.80
2023-03-22T11:51:14.739Z,6.13
2023-03-22T11:53:44.882Z,3.65
2023-03-22T11:56:16.895Z,7.35
2023-03-22T11:59:03.963Z,5.78
2023-03-22T12:01:51.423Z,2.90
2023-03-22T12:04:24.654Z,7.82
2023-03-22T12:06:55.679Z,3.90
2023-03-22T12:09:22.366Z,4.45
2023-03-22T12:11:57.283Z,4.55
2023-03-22T12:14:33.552Z,4.78
2023-03-22T12:17:07.755Z,3.65
2023-03-22T12:19:47.014Z,5.80
2023-03-22T12:22:20.839Z,3.45
2023-03-22T12:24:47.503Z,5.90
2023-03-22T12:27:52.900Z,4.85
2023-03-22T12:30:30.357Z,3.38
2023-03-22T12:33:04.113Z,3.97
2023-03-22T12:35:35.147Z,2.47
2023-03-22T12:38:13.627Z,4.03
2023-03-22T12:40:42.132Z,4.47
2023-03-22T12:43:24.307Z,3.58
2023-03-22T12:45:57.811Z,4.25
2023-03-22T12:48:41.227Z,4.55
2023-03-22T12:51:11.926Z,5.20
2023-03-22T12:53:50.868Z,3.67
2023-03-22T12:56:24.957Z,4.80
2023-03-22T12:58:59.080Z,5.90
2023-03-22T13:01:33.202Z,3.33
2023-03-22T13:04:00.396Z,2.55
2023-03-22T13:06:47.724Z,5.43
2023-03-22T13:09:27.617Z,3.40
2023-03-22T13:12:19.315Z,6.03
2023-03-22T13:14:51.788Z,7.53
2023-03-22T13:17:27.386Z,10.13
2023-03-22T13:20:01.883Z,4.03
2023-03-22T13:22:39.854Z,5.05
2023-03-22T13:25:19.257Z,5.57
2023-03-22T13:27:46.053Z,4.85
2023-03-22T13:30:28.188Z,3.65
2023-03-22T13:33:10.192Z,5.85
2023-03-22T13:35:51.323Z,3.40
2023-03-22T13:38:40.558Z,4.28
2023-03-22T13:41:27.963Z,4.18
2023-03-22T13:43:56.747Z,6.53
2023-03-22T13:46:23.578Z,4.00
2023-03-22T13:48:54.629Z,4.85
2023-03-22T13:51:32.145Z,4.00
2023-03-22T13:54:13.936Z,3.72
2023-03-22T13:56:46.806Z,4.05
2023-03-22T13:59:27.270Z,2.83
2023-03-22T14:02:04.705Z,5.07
2023-03-22T14:05:01.877Z,5.70
2023-03-22T14:07:46.907Z,2.67
2023-03-22T14:10:24.811Z,3.92
2023-03-22T14:12:56.328Z,2.78
2023-03-22T14:15:28.398Z,2.17
2023-03-22T14:18:15.744Z,5.35
2023-03-22T14:20:43.538Z,5.20
